sensor_id;sensor_type;location;lat;lon;timestamp;P1;durP1;ratioP1;P2;durP2;ratioP2
40807;SDS011;26523;52.504;13.498;2022-08-18T00:01:56;9.23;;;5.10;;
40807;SDS011;26523;52.504;13.498;2022-08-18T00:04:29;9.52;;;4.00;;
40807;SDS011;26523;52.504;13.498;2022-08-18T00:06:55;8.50;;;4.63;;
40807;SDS011;26523;52.504;13.498;2022-08-18T00:09:21;7.30;;;4.38;;
40807;SDS011;26523;52.504;13.498;2022-08-18T00:11:47;7.68;;;4.68;;
40807;SDS011;26523;52.504;13.498;2022-08-18T00:14:13;8.25;;;5.00;;
40807;SDS011;26523;52.504;13.498;2022-08-18T00:16:42;8.48;;;5.03;;
40807;SDS011;26523;52.504;13.498;2022-08-18T00:19:08;7.95;;;4.60;;
40807;SDS011;26523;52.504;13.498;2022-08-18T00:21:34;7.43;;;5.05;;
40807;SDS011;26523;52.504;13.498;2022-08-18T00:24:00;9.52;;;4.80;;
40807;SDS011;26523;52.504;13.498;2022-08-18T00:26:26;8.13;;;4.57;;
40807;SDS011;26523;52.504;13.498;2022-08-18T00:28:52;7.85;;;5.00;;
40807;SDS011;26523;52.504;13.498;2022-08-18T00:31:17;7.63;;;4.95;;
40807;SDS011;26523;52.504;13.498;2022-08-18T00:33:43;8.57;;;5.03;;
40807;SDS011;26523;52.504;13.498;2022-08-18T00:36:09;9.57;;;5.15;;
40807;SDS011;26523;52.504;13.498;2022-08-18T00:38:36;8.13;;;4.57;;
40807;SDS011;26523;52.504;13.498;2022-08-18T00:41:02;8.13;;;5.07;;
40807;SDS011;26523;52.504;13.498;2022-08-18T00:43:31;9.52;;;5.18;;
40807;SDS011;26523;52.504;13.498;2022-08-18T00:46:07;8.52;;;5.00;;
40807;SDS011;26523;52.504;13.498;2022-08-18T00:48:35;7.80;;;4.90;;
40807;SDS011;26523;52.504;13.498;2022-08-18T00:51:02;7.93;;;4.55;;
40807;SDS011;26523;52.504;13.498;2022-08-18T00:53:34;9.07;;;4.70;;
40807;SDS011;26523;52.504;13.498;2022-08-18T00:56:07;9.77;;;5.55;;
40807;SDS011;26523;52.504;13.498;2022-08-18T00:58:37;7.65;;;5.07;;
40807;SDS011;26523;52.504;13.498;2022-08-18T01:01:26;10.27;;;4.90;;
40807;SDS011;26523;52.504;13.498;2022-08-18T01:03:56;13.32;;;6.22;;
40807;SDS011;26523;52.504;13.498;2022-08-18T01:06:32;8.75;;;5.05;;
40807;SDS011;26523;52.504;13.498;2022-08-18T01:09:04;10.82;;;5.15;;
40807;SDS011;26523;52.504;13.498;2022-08-18T01:11:32;8.48;;;5.28;;
40807;SDS011;26523;52.504;13.498;2022-08-18T01:14:00;9.95;;;5.55;;
40807;SDS011;26523;52.504;13.498;2022-08-18T01:16:26;9.18;;;5.43;;
40807;SDS011;26523;52.504;13.498;2022-08-18T01:19:11;7.20;;;5.05;;
40807;SDS011;26523;52.504;13.498;2022-08-18T01:21:57;9.80;;;5.53;;
40807;SDS011;26523;52.504;13.498;2022-08-18T01:24:35;9.38;;;5.28;;
40807;SDS011;26523;52.504;13.498;2022-08-18T01:27:20;9.13;;;5.20;;
40807;SDS011;26523;52.504;13.498;2022-08-18T01:29:46;8.63;;;5.45;;
40807;SDS011;26523;52.504;13.498;2022-08-18T01:32:15;9.85;;;5.25;;
40807;SDS011;26523;52.504;13.498;2022-08-18T01:34:47;7.78;;;5.07;;
40807;SDS011;26523;52.504;13.498;2022-08-18T01:37:14;11.10;;;5.22;;
40807;SDS011;26523;52.504;13.498;2022-08-18T01:39:42;9.40;;;4.72;;
40807;SDS011;26523;52.504;13.498;2022-08-18T01:42:09;8.55;;;4.90;;
40807;SDS011;26523;52.504;13.498;2022-08-18T01:44:37;9.60;;;5.40;;
40807;SDS011;26523;52.504;13.498;2022-08-18T01:47:07;8.70;;;5.20;;
40807;SDS011;26523;52.504;13.498;2022-08-18T01:49:34;12.02;;;5.68;;
40807;SDS011;26523;52.504;13.498;2022-08-18T01:52:00;9.00;;;5.50;;
40807;SDS011;26523;52.504;13.498;2022-08-18T01:54:28;8.68;;;5.82;;
40807;SDS011;26523;52.504;13.498;2022-08-18T01:56:54;9.57;;;5.03;;
40807;SDS011;26523;52.504;13.498;2022-08-18T01:59:20;9.98;;;5.47;;
40807;SDS011;26523;52.504;13.498;2022-08-18T02:01:46;14.25;;;5.80;;
40807;SDS011;26523;52.504;13.498;2022-08-18T02:04:11;10.30;;;5.30;;
40807;SDS011;26523;52.504;13.498;2022-08-18T02:06:39;13.27;;;5.75;;
40807;SDS011;26523;52.504;13.498;2022-08-18T02:09:05;14.63;;;5.40;;
40807;SDS011;26523;52.504;13.498;2022-08-18T02:11:31;11.25;;;5.78;;
40807;SDS011;26523;52.504;13.498;2022-08-18T02:13:57;12.80;;;5.70;;
40807;SDS011;26523;52.504;13.498;2022-08-18T02:16:23;9.70;;;5.85;;
40807;SDS011;26523;52.504;13.498;2022-08-18T02:18:48;12.88;;;6.22;;
40807;SDS011;26523;52.504;13.498;2022-08-18T02:21:15;8.30;;;5.20;;
40807;SDS011;26523;52.504;13.498;2022-08-18T02:23:43;13.73;;;6.25;;
40807;SDS011;26523;52.504;13.498;2022-08-18T02:26:11;9.32;;;5.25;;
40807;SDS011;26523;52.504;13.498;2022-08-18T02:28:39;12.52;;;5.93;;
40807;SDS011;26523;52.504;13.498;2022-08-18T02:31:05;12.70;;;5.72;;
40807;SDS011;26523;52.504;13.498;2022-08-18T02:33:37;12.32;;;6.15;;
40807;SDS011;26523;52.504;13.498;2022-08-18T02:36:03;14.90;;;5.55;;
40807;SDS011;26523;52.504;13.498;2022-08-18T02:38:29;9.55;;;5.68;;
40807;SDS011;26523;52.504;13.498;2022-08-18T02:40:58;9.30;;;5.57;;
40807;SDS011;26523;52.504;13.498;2022-08-18T02:43:26;9.50;;;5.53;;
40807;SDS011;26523;52.504;13.498;2022-08-18T02:45:53;12.07;;;6.20;;
40807;SDS011;26523;52.504;13.498;2022-08-18T02:48:19;15.13;;;5.93;;
40807;SDS011;26523;52.504;13.498;2022-08-18T02:50:58;11.88;;;5.88;;
40807;SDS011;26523;52.504;13.498;2022-08-18T02:53:28;10.10;;;5.65;;
40807;SDS011;26523;52.504;13.498;2022-08-18T02:55:54;9.13;;;5.60;;
40807;SDS011;26523;52.504;13.498;2022-08-18T02:58:20;11.35;;;6.13;;
40807;SDS011;26523;52.504;13.498;2022-08-18T03:00:46;9.85;;;5.38;;
40807;SDS011;26523;52.504;13.498;2022-08-18T03:03:11;10.52;;;6.15;;
40807;SDS011;26523;52.504;13.498;2022-08-18T03:05:37;10.15;;;6.18;;
40807;SDS011;26523;52.504;13.498;2022-08-18T03:08:03;10.32;;;5.32;;
40807;SDS011;26523;52.504;13.498;2022-08-18T03:10:29;10.95;;;6.18;;
40807;SDS011;26523;52.504;13.498;2022-08-18T03:12:55;13.25;;;6.70;;
40807;SDS011;26523;52.504;13.498;2022-08-18T03:15:21;12.52;;;6.05;;
40807;SDS011;26523;52.504;13.498;2022-08-18T03:17:47;9.68;;;5.60;;
40807;SDS011;26523;52.504;13.498;2022-08-18T03:20:12;9.90;;;5.88;;
40807;SDS011;26523;52.504;13.498;2022-08-18T03:22:38;10.00;;;5.45;;
40807;SDS011;26523;52.504;13.498;2022-08-18T03:25:04;11.75;;;5.85;;
40807;SDS011;26523;52.504;13.498;2022-08-18T03:27:29;12.73;;;5.95;;
40807;SDS011;26523;52.504;13.498;2022-08-18T03:29:55;11.43;;;5.85;;
40807;SDS011;26523;52.504;13.498;2022-08-18T03:32:21;10.77;;;6.00;;
40807;SDS011;26523;52.504;13.498;2022-08-18T03:34:46;10.23;;;6.20;;
40807;SDS011;26523;52.504;13.498;2022-08-18T03:37:12;10.68;;;6.45;;
40807;SDS011;26523;52.504;13.498;2022-08-18T03:39:40;10.48;;;5.95;;
40807;SDS011;26523;52.504;13.498;2022-08-18T03:42:05;10.07;;;6.18;;
40807;SDS011;26523;52.504;13.498;2022-08-18T03:44:32;10.00;;;6.00;;
40807;SDS011;26523;52.504;13.498;2022-08-18T03:47:02;10.68;;;6.07;;
40807;SDS011;26523;52.504;13.498;2022-08-18T03:49:32;13.05;;;6.28;;
40807;SDS011;26523;52.504;13.498;2022-08-18T03:51:57;10.00;;;5.97;;
40807;SDS011;26523;52.504;13.498;2022-08-18T03:54:24;10.13;;;6.50;;
40807;SDS011;26523;52.504;13.498;2022-08-18T03:56:50;10.35;;;6.10;;
40807;SDS011;26523;52.504;13.498;2022-08-18T03:59:17;12.20;;;6.18;;
40807;SDS011;26523;52.504;13.498;2022-08-18T04:01:46;9.70;;;5.88;;
40807;SDS011;26523;52.504;13.498;2022-08-18T04:04:14;11.93;;;7.35;;
40807;SDS011;26523;52.504;13.498;2022-08-18T04:06:44;10.45;;;5.55;;
40807;SDS011;26523;52.504;13.498;2022-08-18T04:09:15;12.63;;;6.38;;
40807;SDS011;26523;52.504;13.498;2022-08-18T04:11:42;10.05;;;6.00;;
40807;SDS011;26523;52.504;13.498;2022-08-18T04:14:09;10.98;;;5.97;;
40807;SDS011;26523;52.504;13.498;2022-08-18T04:16:37;15.85;;;6.57;;
40807;SDS011;26523;52.504;13.498;2022-08-18T04:19:03;12.23;;;6.47;;
40807;SDS011;26523;52.504;13.498;2022-08-18T04:21:29;12.25;;;5.93;;
40807;SDS011;26523;52.504;13.498;2022-08-18T04:23:57;11.63;;;6.22;;
40807;SDS011;26523;52.504;13.498;2022-08-18T04:26:29;9.88;;;6.22;;
40807;SDS011;26523;52.504;13.498;2022-08-18T04:28:59;10.13;;;6.82;;
40807;SDS011;26523;52.504;13.498;2022-08-18T04:31:26;9.90;;;6.38;;
40807;SDS011;26523;52.504;13.498;2022-08-18T04:33:54;9.57;;;6.07;;
40807;SDS011;26523;52.504;13.498;2022-08-18T04:36:22;12.27;;;6.85;;
40807;SDS011;26523;52.504;13.498;2022-08-18T04:38:48;10.45;;;6.15;;
40807;SDS011;26523;52.504;13.498;2022-08-18T04:41:14;14.63;;;7.07;;
40807;SDS011;26523;52.504;13.498;2022-08-18T04:43:40;10.40;;;6.20;;
40807;SDS011;26523;52.504;13.498;2022-08-18T04:46:06;10.02;;;6.15;;
40807;SDS011;26523;52.504;13.498;2022-08-18T04:48:36;10.80;;;6.60;;
40807;SDS011;26523;52.504;13.498;2022-08-18T04:51:07;10.32;;;6.43;;
40807;SDS011;26523;52.504;13.498;2022-08-18T04:53:33;11.65;;;6.65;;
40807;SDS011;26523;52.504;13.498;2022-08-18T04:56:12;11.70;;;6.28;;
40807;SDS011;26523;52.504;13.498;2022-08-18T04:59:00;16.20;;;7.03;;
40807;SDS011;26523;52.504;13.498;2022-08-18T05:01:30;13.30;;;6.28;;
40807;SDS011;26523;52.504;13.498;2022-08-18T05:04:00;12.23;;;6.40;;
40807;SDS011;26523;52.504;13.498;2022-08-18T05:06:26;12.13;;;6.07;;
40807;SDS011;26523;52.504;13.498;2022-08-18T05:08:57;10.00;;;6.18;;
40807;SDS011;26523;52.504;13.498;2022-08-18T05:11:29;14.30;;;7.25;;
40807;SDS011;26523;52.504;13.498;2022-08-18T05:13:59;11.02;;;5.97;;
40807;SDS011;26523;52.504;13.498;2022-08-18T05:16:27;10.07;;;6.55;;
40807;SDS011;26523;52.504;13.498;2022-08-18T05:18:53;11.30;;;6.70;;
40807;SDS011;26523;52.504;13.498;2022-08-18T05:21:19;14.23;;;6.90;;
40807;SDS011;26523;52.504;13.498;2022-08-18T05:23:46;9.98;;;6.40;;
40807;SDS011;26523;52.504;13.498;2022-08-18T05:26:13;11.90;;;6.30;;
40807;SDS011;26523;52.504;13.498;2022-08-18T05:28:41;9.80;;;5.93;;
40807;SDS011;26523;52.504;13.498;2022-08-18T05:31:26;10.38;;;6.13;;
40807;SDS011;26523;52.504;13.498;2022-08-18T05:33:53;10.00;;;6.07;;
40807;SDS011;26523;52.504;13.498;2022-08-18T05:44:13;14.60;;;6.68;;
40807;SDS011;26523;52.504;13.498;2022-08-18T05:46:47;15.00;;;6.13;;
40807;SDS011;26523;52.504;13.498;2022-08-18T05:49:19;14.13;;;6.70;;
40807;SDS011;26523;52.504;13.498;2022-08-18T05:51:49;15.98;;;7.35;;
40807;SDS011;26523;52.504;13.498;2022-08-18T05:54:23;15.75;;;6.75;;
40807;SDS011;26523;52.504;13.498;2022-08-18T05:57:11;13.65;;;7.07;;
40807;SDS011;26523;52.504;13.498;2022-08-18T05:59:40;18.88;;;6.30;;
40807;SDS011;26523;52.504;13.498;2022-08-18T06:04:49;15.98;;;6.32;;
40807;SDS011;26523;52.504;13.498;2022-08-18T06:07:36;11.65;;;6.93;;
40807;SDS011;26523;52.504;13.498;2022-08-18T06:10:09;13.60;;;7.28;;
40807;SDS011;26523;52.504;13.498;2022-08-18T06:12:36;11.50;;;6.72;;
40807;SDS011;26523;52.504;13.498;2022-08-18T06:15:28;11.50;;;5.90;;
40807;SDS011;26523;52.504;13.498;2022-08-18T06:26:25;11.63;;;6.78;;
40807;SDS011;26523;52.504;13.498;2022-08-18T06:32:17;14.35;;;6.80;;
40807;SDS011;26523;52.504;13.498;2022-08-18T06:37:29;10.30;;;6.03;;
40807;SDS011;26523;52.504;13.498;2022-08-18T06:40:20;12.05;;;6.18;;
40807;SDS011;26523;52.504;13.498;2022-08-18T06:42:46;15.32;;;6.43;;
40807;SDS011;26523;52.504;13.498;2022-08-18T06:45:12;10.05;;;5.85;;
40807;SDS011;26523;52.504;13.498;2022-08-18T06:47:48;10.82;;;5.88;;
40807;SDS011;26523;52.504;13.498;2022-08-18T06:50:31;11.75;;;5.90;;
40807;SDS011;26523;52.504;13.498;2022-08-18T06:53:10;9.60;;;6.60;;
40807;SDS011;26523;52.504;13.498;2022-08-18T06:55:37;11.00;;;5.95;;
40807;SDS011;26523;52.504;13.498;2022-08-18T07:00:37;10.63;;;6.57;;
40807;SDS011;26523;52.504;13.498;2022-08-18T07:03:10;11.15;;;6.35;;
40807;SDS011;26523;52.504;13.498;2022-08-18T07:05:55;13.13;;;6.07;;
40807;SDS011;26523;52.504;13.498;2022-08-18T07:08:32;9.25;;;5.95;;
40807;SDS011;26523;52.504;13.498;2022-08-18T07:11:13;11.73;;;6.10;;
40807;SDS011;26523;52.504;13.498;2022-08-18T07:13:54;12.52;;;5.90;;
40807;SDS011;26523;52.504;13.498;2022-08-18T07:16:35;11.65;;;6.00;;
40807;SDS011;26523;52.504;13.498;2022-08-18T07:19:11;11.55;;;5.85;;
40807;SDS011;26523;52.504;13.498;2022-08-18T07:21:40;13.77;;;6.32;;
40807;SDS011;26523;52.504;13.498;2022-08-18T07:29:23;9.18;;;5.60;;
40807;SDS011;26523;52.504;13.498;2022-08-18T07:31:48;11.05;;;5.70;;
40807;SDS011;26523;52.504;13.498;2022-08-18T07:34:20;10.52;;;6.32;;
40807;SDS011;26523;52.504;13.498;2022-08-18T07:37:02;7.90;;;5.75;;
40807;SDS011;26523;52.504;13.498;2022-08-18T07:42:27;11.00;;;5.85;;
40807;SDS011;26523;52.504;13.498;2022-08-18T07:45:26;31.55;;;20.25;;
40807;SDS011;26523;52.504;13.498;2022-08-18T07:48:10;13.18;;;7.70;;
40807;SDS011;26523;52.504;13.498;2022-08-18T07:56:06;12.75;;;5.90;;
40807;SDS011;26523;52.504;13.498;2022-08-18T07:58:50;9.75;;;6.13;;
40807;SDS011;26523;52.504;13.498;2022-08-18T08:07:00;11.57;;;6.78;;
40807;SDS011;26523;52.504;13.498;2022-08-18T08:20:31;14.10;;;6.38;;
40807;SDS011;26523;52.504;13.498;2022-08-18T08:23:24;14.07;;;6.53;;
40807;SDS011;26523;52.504;13.498;2022-08-18T08:34:34;10.20;;;6.28;;
40807;SDS011;26523;52.504;13.498;2022-08-18T08:37:11;20.83;;;6.43;;
40807;SDS011;26523;52.504;13.498;2022-08-18T08:39:44;14.40;;;5.80;;
40807;SDS011;26523;52.504;13.498;2022-08-18T08:42:12;9.90;;;5.95;;
40807;SDS011;26523;52.504;13.498;2022-08-18T08:44:57;10.45;;;5.60;;
40807;SDS011;26523;52.504;13.498;2022-08-18T08:47:29;9.73;;;5.93;;
40807;SDS011;26523;52.504;13.498;2022-08-18T08:50:11;9.82;;;6.35;;
40807;SDS011;26523;52.504;13.498;2022-08-18T08:52:53;13.63;;;5.78;;
40807;SDS011;26523;52.504;13.498;2022-08-18T08:55:24;12.25;;;7.00;;
40807;SDS011;26523;52.504;13.498;2022-08-18T09:00:39;8.65;;;6.07;;
40807;SDS011;26523;52.504;13.498;2022-08-18T09:06:18;12.18;;;6.53;;
40807;SDS011;26523;52.504;13.498;2022-08-18T09:14:45;9.90;;;6.22;;
40807;SDS011;26523;52.504;13.498;2022-08-18T09:17:44;9.27;;;5.70;;
40807;SDS011;26523;52.504;13.498;2022-08-18T09:28:08;11.73;;;5.97;;
40807;SDS011;26523;52.504;13.498;2022-08-18T09:33:18;12.02;;;5.53;;
40807;SDS011;26523;52.504;13.498;2022-08-18T09:36:04;8.32;;;5.32;;
40807;SDS011;26523;52.504;13.498;2022-08-18T09:42:21;7.85;;;5.45;;
40807;SDS011;26523;52.504;13.498;2022-08-18T09:50:33;7.80;;;5.10;;
40807;SDS011;26523;52.504;13.498;2022-08-18T09:52:54;10.32;;;4.72;;
40807;SDS011;26523;52.504;13.498;2022-08-18T09:58:12;6.57;;;4.47;;
40807;SDS011;26523;52.504;13.498;2022-08-18T10:00:38;7.13;;;4.65;;
40807;SDS011;26523;52.504;13.498;2022-08-18T10:03:10;11.02;;;4.88;;
40807;SDS011;26523;52.504;13.498;2022-08-18T10:05:37;8.82;;;4.63;;
40807;SDS011;26523;52.504;13.498;2022-08-18T10:10:43;7.28;;;4.47;;
40807;SDS011;26523;52.504;13.498;2022-08-18T10:24:22;6.30;;;3.95;;
40807;SDS011;26523;52.504;13.498;2022-08-18T10:35:02;7.25;;;4.57;;
40807;SDS011;26523;52.504;13.498;2022-08-18T10:37:26;8.38;;;4.60;;
40807;SDS011;26523;52.504;13.498;2022-08-18T10:40:04;8.43;;;4.95;;
40807;SDS011;26523;52.504;13.498;2022-08-18T10:47:39;9.25;;;5.05;;
40807;SDS011;26523;52.504;13.498;2022-08-18T10:50:18;7.95;;;4.70;;
40807;SDS011;26523;52.504;13.498;2022-08-18T10:53:34;7.82;;;4.60;;
40807;SDS011;26523;52.504;13.498;2022-08-18T10:55:56;11.38;;;3.95;;
40807;SDS011;26523;52.504;13.498;2022-08-18T11:09:41;6.13;;;4.50;;
40807;SDS011;26523;52.504;13.498;2022-08-18T11:12:07;8.30;;;4.68;;
40807;SDS011;26523;52.504;13.498;2022-08-18T11:20:15;10.18;;;4.10;;
40807;SDS011;26523;52.504;13.498;2022-08-18T11:23:15;7.53;;;4.07;;
40807;SDS011;26523;52.504;13.498;2022-08-18T11:25:38;9.45;;;4.03;;
40807;SDS011;26523;52.504;13.498;2022-08-18T11:28:21;9.32;;;4.40;;
40807;SDS011;26523;52.504;13.498;2022-08-18T11:30:48;7.97;;;4.85;;
40807;SDS011;26523;52.504;13.498;2022-08-18T11:33:17;9.38;;;4.22;;
40807;SDS011;26523;52.504;13.498;2022-08-18T11:35:51;8.73;;;4.50;;
40807;SDS011;26523;52.504;13.498;2022-08-18T11:38:22;6.85;;;4.18;;
40807;SDS011;26523;52.504;13.498;2022-08-18T11:40:48;7.15;;;3.67;;
40807;SDS011;26523;52.504;13.498;2022-08-18T11:43:25;9.67;;;3.93;;
40807;SDS011;26523;52.504;13.498;2022-08-18T11:45:58;6.63;;;4.00;;
40807;SDS011;26523;52.504;13.498;2022-08-18T11:53:52;9.95;;;4.25;;
40807;SDS011;26523;52.504;13.498;2022-08-18T11:56:43;11.50;;;3.85;;
40807;SDS011;26523;52.504;13.498;2022-08-18T12:01:49;5.88;;;3.50;;
40807;SDS011;26523;52.504;13.498;2022-08-18T12:07:04;10.05;;;4.05;;
40807;SDS011;26523;52.504;13.498;2022-08-18T12:09:36;6.88;;;3.63;;
40807;SDS011;26523;52.504;13.498;2022-08-18T12:12:06;8.25;;;3.97;;
40807;SDS011;26523;52.504;13.498;2022-08-18T12:14:57;6.63;;;4.05;;
40807;SDS011;26523;52.504;13.498;2022-08-18T12:17:25;6.97;;;3.53;;
40807;SDS011;26523;52.504;13.498;2022-08-18T12:19:52;6.50;;;4.13;;
40807;SDS011;26523;52.504;13.498;2022-08-18T12:22:19;8.73;;;4.45;;
40807;SDS011;26523;52.504;13.498;2022-08-18T12:24:48;5.05;;;3.30;;
40807;SDS011;26523;52.504;13.498;2022-08-18T12:27:15;12.75;;;3.97;;
40807;SDS011;26523;52.504;13.498;2022-08-18T12:29:42;7.60;;;3.50;;
40807;SDS011;26523;52.504;13.498;2022-08-18T12:32:08;6.88;;;3.88;;
40807;SDS011;26523;52.504;13.498;2022-08-18T12:34:34;5.78;;;3.40;;
40807;SDS011;26523;52.504;13.498;2022-08-18T12:37:00;5.47;;;3.53;;
40807;SDS011;26523;52.504;13.498;2022-08-18T12:39:27;6.72;;;3.72;;
40807;SDS011;26523;52.504;13.498;2022-08-18T12:41:53;6.40;;;3.25;;
40807;SDS011;26523;52.504;13.498;2022-08-18T12:44:19;6.10;;;3.60;;
40807;SDS011;26523;52.504;13.498;2022-08-18T12:46:45;7.45;;;3.97;;
40807;SDS011;26523;52.504;13.498;2022-08-18T12:49:15;5.13;;;3.58;;
40807;SDS011;26523;52.504;13.498;2022-08-18T12:51:43;6.32;;;3.70;;
40807;SDS011;26523;52.504;13.498;2022-08-18T12:54:09;5.30;;;3.42;;
40807;SDS011;26523;52.504;13.498;2022-08-18T12:56:35;7.28;;;3.47;;
40807;SDS011;26523;52.504;13.498;2022-08-18T12:59:02;10.13;;;3.70;;
40807;SDS011;26523;52.504;13.498;2022-08-18T13:01:29;6.43;;;3.25;;
40807;SDS011;26523;52.504;13.498;2022-08-18T13:03:55;7.53;;;3.88;;
40807;SDS011;26523;52.504;13.498;2022-08-18T13:06:21;5.30;;;3.17;;
40807;SDS011;26523;52.504;13.498;2022-08-18T13:08:48;4.90;;;3.03;;
40807;SDS011;26523;52.504;13.498;2022-08-18T13:11:15;5.13;;;3.08;;
40807;SDS011;26523;52.504;13.498;2022-08-18T13:13:42;6.55;;;3.10;;
40807;SDS011;26523;52.504;13.498;2022-08-18T13:16:08;5.18;;;3.28;;
40807;SDS011;26523;52.504;13.498;2022-08-18T13:18:35;6.65;;;3.47;;
40807;SDS011;26523;52.504;13.498;2022-08-18T13:21:02;4.38;;;2.90;;
40807;SDS011;26523;52.504;13.498;2022-08-18T13:23:28;5.97;;;3.20;;
40807;SDS011;26523;52.504;13.498;2022-08-18T13:25:55;16.25;;;3.90;;
40807;SDS011;26523;52.504;13.498;2022-08-18T13:28:22;5.55;;;3.17;;
40807;SDS011;26523;52.504;13.498;2022-08-18T13:30:48;5.70;;;3.25;;
40807;SDS011;26523;52.504;13.498;2022-08-18T13:33:15;6.80;;;3.13;;
40807;SDS011;26523;52.504;13.498;2022-08-18T13:35:44;6.20;;;3.67;;
40807;SDS011;26523;52.504;13.498;2022-08-18T13:38:12;5.63;;;3.40;;
40807;SDS011;26523;52.504;13.498;2022-08-18T13:40:39;6.15;;;3.92;;
40807;SDS011;26523;52.504;13.498;2022-08-18T13:43:04;4.75;;;3.38;;
40807;SDS011;26523;52.504;13.498;2022-08-18T13:45:32;9.23;;;3.38;;
40807;SDS011;26523;52.504;13.498;2022-08-18T13:47:58;7.28;;;3.47;;
40807;SDS011;26523;52.504;13.498;2022-08-18T13:50:24;6.85;;;3.70;;
40807;SDS011;26523;52.504;13.498;2022-08-18T13:52:49;6.20;;;3.90;;
40807;SDS011;26523;52.504;13.498;2022-08-18T13:55:16;6.63;;;3.95;;
40807;SDS011;26523;52.504;13.498;2022-08-18T13:57:43;9.20;;;4.20;;
40807;SDS011;26523;52.504;13.498;2022-08-18T14:00:13;8.07;;;4.50;;
40807;SDS011;26523;52.504;13.498;2022-08-18T14:02:41;7.93;;;4.43;;
40807;SDS011;26523;52.504;13.498;2022-08-18T14:05:07;9.52;;;3.65;;
40807;SDS011;26523;52.504;13.498;2022-08-18T14:07:36;7.70;;;4.53;;
40807;SDS011;26523;52.504;13.498;2022-08-18T14:10:05;9.27;;;4.32;;
40807;SDS011;26523;52.504;13.498;2022-08-18T14:12:33;7.93;;;4.82;;
40807;SDS011;26523;52.504;13.498;2022-08-18T14:15:02;7.05;;;3.97;;
40807;SDS011;26523;52.504;13.498;2022-08-18T14:17:31;6.47;;;4.65;;
40807;SDS011;26523;52.504;13.498;2022-08-18T14:19:57;6.38;;;4.10;;
40807;SDS011;26523;52.504;13.498;2022-08-18T14:22:42;5.97;;;4.00;;
40807;SDS011;26523;52.504;13.498;2022-08-18T14:25:27;8.98;;;4.65;;
40807;SDS011;26523;52.504;13.498;2022-08-18T14:28:11;9.50;;;4.50;;
40807;SDS011;26523;52.504;13.498;2022-08-18T14:30:38;9.40;;;4.10;;
40807;SDS011;26523;52.504;13.498;2022-08-18T14:33:05;7.43;;;4.30;;
40807;SDS011;26523;52.504;13.498;2022-08-18T14:35:31;6.50;;;4.32;;
40807;SDS011;26523;52.504;13.498;2022-08-18T14:37:58;6.78;;;4.00;;
40807;SDS011;26523;52.504;13.498;2022-08-18T14:40:25;6.85;;;4.45;;
40807;SDS011;26523;52.504;13.498;2022-08-18T14:42:51;7.82;;;4.82;;
40807;SDS011;26523;52.504;13.498;2022-08-18T14:45:17;10.02;;;4.90;;
40807;SDS011;26523;52.504;13.498;2022-08-18T14:47:43;7.63;;;4.25;;
40807;SDS011;26523;52.504;13.498;2022-08-18T14:50:09;6.85;;;4.30;;
40807;SDS011;26523;52.504;13.498;2022-08-18T14:52:37;9.05;;;4.78;;
40807;SDS011;26523;52.504;13.498;2022-08-18T14:55:05;9.70;;;4.70;;
40807;SDS011;26523;52.504;13.498;2022-08-18T14:57:31;7.90;;;4.18;;
40807;SDS011;26523;52.504;13.498;2022-08-18T14:59:57;7.30;;;3.78;;
40807;SDS011;26523;52.504;13.498;2022-08-18T15:02:23;6.95;;;4.13;;
40807;SDS011;26523;52.504;13.498;2022-08-18T15:04:48;11.05;;;3.95;;
40807;SDS011;26523;52.504;13.498;2022-08-18T15:07:14;7.30;;;4.10;;
40807;SDS011;26523;52.504;13.498;2022-08-18T15:09:40;5.75;;;3.78;;
40807;SDS011;26523;52.504;13.498;2022-08-18T15:12:06;7.38;;;3.75;;
40807;SDS011;26523;52.504;13.498;2022-08-18T15:14:32;7.03;;;4.30;;
40807;SDS011;26523;52.504;13.498;2022-08-18T15:16:59;6.85;;;3.80;;
40807;SDS011;26523;52.504;13.498;2022-08-18T15:19:26;9.00;;;3.95;;
40807;SDS011;26523;52.504;13.498;2022-08-18T15:21:52;8.30;;;3.70;;
40807;SDS011;26523;52.504;13.498;2022-08-18T15:24:40;11.27;;;3.83;;
40807;SDS011;26523;52.504;13.498;2022-08-18T15:27:32;6.25;;;3.80;;
40807;SDS011;26523;52.504;13.498;2022-08-18T15:30:00;6.97;;;4.38;;
40807;SDS011;26523;52.504;13.498;2022-08-18T15:32:29;10.27;;;3.83;;
40807;SDS011;26523;52.504;13.498;2022-08-18T15:34:55;5.53;;;3.38;;
40807;SDS011;26523;52.504;13.498;2022-08-18T15:37:20;7.13;;;3.65;;
40807;SDS011;26523;52.504;13.498;2022-08-18T15:39:47;6.18;;;3.72;;
40807;SDS011;26523;52.504;13.498;2022-08-18T15:42:13;7.57;;;3.60;;
40807;SDS011;26523;52.504;13.498;2022-08-18T15:44:38;9.60;;;5.18;;
40807;SDS011;26523;52.504;13.498;2022-08-18T15:47:04;8.48;;;3.47;;
40807;SDS011;26523;52.504;13.498;2022-08-18T15:49:31;5.35;;;3.47;;
40807;SDS011;26523;52.504;13.498;2022-08-18T15:51:57;8.25;;;3.80;;
40807;SDS011;26523;52.504;13.498;2022-08-18T15:54:23;7.03;;;4.10;;
40807;SDS011;26523;52.504;13.498;2022-08-18T15:56:48;9.13;;;5.20;;
40807;SDS011;26523;52.504;13.498;2022-08-18T15:59:14;7.93;;;4.25;;
40807;SDS011;26523;52.504;13.498;2022-08-18T16:01:40;8.30;;;4.75;;
40807;SDS011;26523;52.504;13.498;2022-08-18T16:04:06;6.05;;;3.63;;
40807;SDS011;26523;52.504;13.498;2022-08-18T16:06:32;9.02;;;4.05;;
40807;SDS011;26523;52.504;13.498;2022-08-18T16:09:02;6.80;;;4.43;;
40807;SDS011;26523;52.504;13.498;2022-08-18T16:11:28;6.45;;;4.20;;
40807;SDS011;26523;52.504;13.498;2022-08-18T16:13:54;9.10;;;4.78;;
40807;SDS011;26523;52.504;13.498;2022-08-18T16:16:22;8.90;;;4.28;;
40807;SDS011;26523;52.504;13.498;2022-08-18T16:18:49;7.65;;;4.40;;
40807;SDS011;26523;52.504;13.498;2022-08-18T16:21:16;5.30;;;3.60;;
40807;SDS011;26523;52.504;13.498;2022-08-18T16:23:49;6.80;;;4.00;;
40807;SDS011;26523;52.504;13.498;2022-08-18T16:26:16;8.55;;;3.95;;
40807;SDS011;26523;52.504;13.498;2022-08-18T16:28:44;6.20;;;4.10;;
40807;SDS011;26523;52.504;13.498;2022-08-18T16:31:12;9.38;;;4.72;;
40807;SDS011;26523;52.504;13.498;2022-08-18T16:33:40;9.80;;;4.57;;
40807;SDS011;26523;52.504;13.498;2022-08-18T16:36:07;8.57;;;5.13;;
40807;SDS011;26523;52.504;13.498;2022-08-18T16:38:35;27.75;;;7.82;;
40807;SDS011;26523;52.504;13.498;2022-08-18T16:41:09;38.03;;;10.27;;
40807;SDS011;26523;52.504;13.498;2022-08-18T16:43:39;20.80;;;8.98;;
40807;SDS011;26523;52.504;13.498;2022-08-18T16:46:11;21.15;;;8.63;;
40807;SDS011;26523;52.504;13.498;2022-08-18T16:48:39;29.55;;;9.98;;
40807;SDS011;26523;52.504;13.498;2022-08-18T16:51:05;22.42;;;11.07;;
40807;SDS011;26523;52.504;13.498;2022-08-18T16:53:30;29.15;;;11.63;;
40807;SDS011;26523;52.504;13.498;2022-08-18T16:55:56;25.50;;;12.18;;
40807;SDS011;26523;52.504;13.498;2022-08-18T16:58:22;22.73;;;12.13;;
40807;SDS011;26523;52.504;13.498;2022-08-18T17:01:06;26.15;;;11.88;;
40807;SDS011;26523;52.504;13.498;2022-08-18T17:03:50;21.05;;;12.27;;
40807;SDS011;26523;52.504;13.498;2022-08-18T17:06:31;22.85;;;12.50;;
40807;SDS011;26523;52.504;13.498;2022-08-18T17:08:57;28.10;;;13.07;;
40807;SDS011;26523;52.504;13.498;2022-08-18T17:11:23;27.40;;;13.32;;
40807;SDS011;26523;52.504;13.498;2022-08-18T17:13:53;32.05;;;15.18;;
40807;SDS011;26523;52.504;13.498;2022-08-18T17:16:21;23.80;;;13.20;;
40807;SDS011;26523;52.504;13.498;2022-08-18T17:18:51;33.08;;;12.98;;
40807;SDS011;26523;52.504;13.498;2022-08-18T17:21:19;27.80;;;14.65;;